HOURLY OBSERVATIONS


Time
(EST)
Temperature
°F
Dew Point
°F
Humidity
%
Wind
mph
Pressure
mb
Precip.
Hour
in
Precip.
Day
in
6 Hr
Max Temp
°F
6 Hr
Min Temp
°F
26 19:00 36 16 44 NW 2 G 6 1030.3 0.00 47 36
26 18:00 40 19 41 NNW 3 G 10 1029.8 0.00
26 17:00 44 23 43 N 4 G 8 1029.6 0.00
26 16:00 47 25 43 N 3 G 11 1029.7 0.00
26 15:00 46 22 39 NNE 3 G 12 1029.6 0.00
26 14:00 44 17 33 ENE 1 G 14 1029.7 0.00
26 13:00 43 19 39 WNW 2 G 10 1030.3 0.00 43 23
26 12:00 40 20 44 ENE 4 G 8 1030.6 0.00
26 11:00 37 21 52 E 4 G 7 1030.7 0.00
26 10:00 36 22 56 ENE 6 G 10 1031.0 0.00
26 09:00 33 22 64 N 3 G 10 1030.4 0.00
26 08:00 30 21 69 NE 2 G 8 1030.2 0.00
26 07:00 23 17 76 Calm 1029.5 0.00 27 23
26 06:00 24 16 73 NNE 0 G 2 1028.2 0.00
26 05:00 24 16 69 NNE 0 G 2 1027.6 0.00
26 04:00 25 15 66 NNE 2 G 5 1026.7 0.00
26 03:00 25 14 63 NE 2 G 7 1026.4 0.00
26 02:00 26 15 63 N 2 G 6 1026.2 0.00
26 01:00 27 16 63 NE 1 G 6 1025.9 0.00 36 27
26 00:00 28 17 64 NNE 2 G 4 1025.8 0.03
25 23:00 29 20 68 N 4 G 8 1025.6 0.03
25 22:00 30 21 69 N 4 G 9 1025.0 0.03
25 21:00 32 19 58 NNE 5 G 12 1024.6 0.03
25 20:00 34 15 44 NNE 3 G 11 1023.5 0.03
25 19:00 36 13 39 N 5 G 13 1022.7 0.03 49 36
25 18:00 39 9 28 N 5 G 11 1022.0 0.03
25 17:00 45 13 27 N 5 G 15 1021.0 0.03
25 16:00 48 16 28 NNE 6 G 15 1020.2 0.03
25 15:00 49 17 28 NNW 6 G 17 1019.8 0.03
25 14:00 48 24 39 NNE 9 G 18 1020.1 0.03
25 13:00 46 32 58 NNW 2 G 7 1020.6 0.03 46 35
25 12:00 41 33 73 NE 4 G 12 1021.0 0.03
25 11:00 36 31 82 NNE 6 G 12 1020.9 0.03
25 10:00 35 30 83 NE 5 G 11 1020.7 0.03
25 09:00 35 31 84 NE 4 G 12 1020.5 0.03
25 08:00 35 31 86 NNE 5 G 12 1020.0 0.03
25 07:00 35 32 88 NNE 3 G 9 1019.1 0.03 44 35
25 06:00 35 32 87 NNE 4 G 7 1018.3 0.03
25 05:00 37 34 87 N 3 G 7 1018.2 0.03
25 04:00 41 38 89 NNE 3 G 6 1018.3 0.01 0.03
25 03:00 43 39 88 NNE 2 G 4 1018.8 0.02
25 02:00 44 40 87 NNW 2 G 6 1019.3 0.02 0.02
25 01:00 44 40 85 Calm 1019.0 0.00 49 44
25 00:00 44 40 84 WNW 0 G 3 1019.2 0.01
24 23:00 45 40 84 Calm 1019.4 0.01
24 22:00 45 40 82 Calm 1019.9 0.01 0.01
24 21:00 46 40 80 Calm 1020.3 0.00
24 20:00 47 40 78 WNW 0 G 3 1020.5 0.00
24 19:00 49 39 69 W 2 G 4 1020.5 0.00 56 49
24 18:00 52 37 57 W 6 G 11 1020.1 0.00
24 17:00 54 28 37 SW 5 G 10 1019.7 0.00
24 16:00 55 31 39 SW 6 G 15 1019.4 0.00
24 15:00 56 30 37 SW 6 G 12 1019.3 0.00
24 14:00 55 30 39 W 5 G 12 1020.2 0.00
24 13:00 53 30 40 W 3 G 7 1021.3 0.00 53 30
24 12:00 51 29 43 WSW 5 G 8 1022.4 0.00
24 11:00 46 28 48 SW 6 G 11 1023.0 0.00
24 10:00 43 27 54 SW 5 G 10 1023.3 0.00
24 09:00 38 27 65 SW 2 G 6 1024.0 0.00
24 08:00 35 27 72 S 1 G 6 1024.6 0.00
24 07:00 30 24 77 Calm 1024.7 0.00 30 28
24 06:00 29 23 81 Calm 1024.6 0.00
24 05:00 28 22 79 Calm 1024.7 0.00
24 04:00 29 22 77 Calm 1024.8 0.00
24 03:00 29 23 77 Calm 1024.7 0.00
24 02:00 29 23 76 Calm 1025.1 0.00
24 01:00 29 23 77 Calm 1025.1 0.00 43 29
24 00:00 31 23 74 Calm 1025.5 0.00
23 23:00 32 24 71 Calm 1025.8 0.00
23 22:00 33 24 68 Calm 1026.0 0.00
23 21:00 35 23 62 Calm 1026.4 0.00
23 20:00 38 23 56 Calm 1026.5 0.00